Time;durP1;ratioP1;P1;durP2;ratioP2;P2;SDS_P1;SDS_P2;PMS_P1;PMS_P2;Temp;Humidity;BMP_temperature;BMP_pressure;BME280_temperature;BME280_humidity;BME280_pressure;Samples;Min_cycle;Max_cycle;Signal;HPM_P1;HPM_P2
2022/08/26 00:00:35;;;;;;;3.27;1.60;;;;;;;;;;5091531;28;20498;-70
2022/08/26 00:03:01;;;;;;;6.33;2.53;;;;;;;;;;5091463;28;20016;-69
2022/08/26 00:05:28;;;;;;;2.93;1.40;;;;;;;;;;5095929;28;20024;-69
2022/08/26 00:07:56;;;;;;;2.40;1.60;;;;;;;;;;5103784;28;20031;-69
2022/08/26 00:10:22;;;;;;;2.53;1.93;;;;;;;;;;5116969;28;20016;-69
2022/08/26 00:12:49;;;;;;;2.73;1.90;;;;;;;;;;5116609;28;20037;-69
2022/08/26 00:15:17;;;;;;;1.47;0.97;;;;;;;;;;5116422;28;20020;-69
2022/08/26 00:17:44;;;;;;;3.60;1.80;;;;;;;;;;5106191;28;20074;-69
2022/08/26 00:20:12;;;;;;;3.00;1.57;;;;;;;;;;5091265;28;20024;-69
2022/08/26 00:22:39;;;;;;;2.60;1.80;;;;;;;;;;5096216;28;20031;-69
2022/08/26 00:25:07;;;;;;;3.30;1.70;;;;;;;;;;5111574;28;20020;-69
2022/08/26 00:27:34;;;;;;;5.27;1.97;;;;;;;;;;5115323;28;20067;-69
2022/08/26 00:30:01;;;;;;;3.73;2.33;;;;;;;;;;5116250;28;20051;-69
2022/08/26 00:32:28;;;;;;;3.00;1.77;;;;;;;;;;5112834;28;20015;-68
2022/08/26 00:34:55;;;;;;;1.67;1.30;;;;;;;;;;5096000;28;20066;-69
2022/08/26 00:37:21;;;;;;;2.23;1.50;;;;;;;;;;5098435;28;20036;-69
2022/08/26 00:39:48;;;;;;;4.83;1.80;;;;;;;;;;5094013;28;20028;-68
2022/08/26 00:42:15;;;;;;;3.50;2.37;;;;;;;;;;5090769;28;20426;-69
2022/08/26 00:44:41;;;;;;;2.83;1.80;;;;;;;;;;5090610;28;20081;-69
2022/08/26 00:47:14;;;;;;;1.90;1.37;;;;;;;;;;5090467;28;20056;-69
2022/08/26 00:49:43;;;;;;;2.57;1.50;;;;;;;;;;5109069;28;20058;-69
2022/08/26 00:52:13;;;;;;;2.73;1.70;;;;;;;;;;5114643;28;20063;-69
2022/08/26 00:54:45;;;;;;;1.50;1.30;;;;;;;;;;5095709;28;20028;-68
2022/08/26 00:57:15;;;;;;;1.63;1.30;;;;;;;;;;5095402;28;20035;-69
2022/08/26 00:59:42;;;;;;;2.97;1.60;;;;;;;;;;5095504;28;20432;-69
2022/08/26 01:02:10;;;;;;;2.53;1.37;;;;;;;;;;5091284;28;20051;-69
2022/08/26 01:04:38;;;;;;;1.47;1.17;;;;;;;;;;5088925;28;20052;-69
2022/08/26 01:07:05;;;;;;;1.50;0.80;;;;;;;;;;5090236;28;20024;-69
2022/08/26 01:09:32;;;;;;;0.87;0.67;;;;;;;;;;5090193;28;20467;-69
2022/08/26 01:12:00;;;;;;;1.47;1.17;;;;;;;;;;5093352;28;20036;-69
2022/08/26 01:14:30;;;;;;;2.93;1.57;;;;;;;;;;5095572;28;20480;-69
2022/08/26 01:16:57;;;;;;;2.03;1.20;;;;;;;;;;5115438;28;20466;-69
2022/08/26 01:19:47;;;;;;;1.43;1.07;;;;;;;;;;5115386;28;20031;-69
2022/08/26 01:22:25;;;;;;;3.13;1.20;;;;;;;;;;5102474;28;20389;-69
2022/08/26 01:24:52;;;;;;;2.53;1.40;;;;;;;;;;5110342;28;20020;-69
2022/08/26 01:27:20;;;;;;;1.30;1.07;;;;;;;;;;5104402;28;20028;-69
2022/08/26 01:29:48;;;;;;;1.93;1.43;;;;;;;;;;5089340;28;20024;-69
2022/08/26 01:32:17;;;;;;;3.33;1.87;;;;;;;;;;5089815;28;20020;-69
2022/08/26 01:34:46;;;;;;;1.80;1.27;;;;;;;;;;5093811;28;20031;-69
2022/08/26 01:37:18;;;;;;;12.00;1.67;;;;;;;;;;5094599;28;20029;-69
2022/08/26 01:39:46;;;;;;;1.43;1.00;;;;;;;;;;5100384;28;20043;-68
2022/08/26 01:42:14;;;;;;;1.73;1.23;;;;;;;;;;5114992;28;20076;-69
2022/08/26 01:44:44;;;;;;;6.20;1.80;;;;;;;;;;5114568;28;20031;-68
2022/08/26 01:47:11;;;;;;;1.30;0.93;;;;;;;;;;5110035;28;20039;-68
2022/08/26 01:49:38;;;;;;;2.10;1.03;;;;;;;;;;5109587;28;20027;-68
2022/08/26 01:52:07;;;;;;;2.70;1.60;;;;;;;;;;5099390;28;20035;-68
2022/08/26 01:54:34;;;;;;;3.43;2.00;;;;;;;;;;5089052;28;20028;-68
2022/08/26 01:57:01;;;;;;;1.03;0.93;;;;;;;;;;5093307;28;20108;-68
2022/08/26 01:59:29;;;;;;;0.67;0.57;;;;;;;;;;5094421;28;20470;-68
2022/08/26 02:01:56;;;;;;;1.77;1.00;;;;;;;;;;5094000;28;20375;-68
2022/08/26 02:04:25;;;;;;;1.57;1.20;;;;;;;;;;5095053;28;20458;-68
2022/08/26 02:06:53;;;;;;;2.40;1.73;;;;;;;;;;5093972;28;20432;-68
2022/08/26 02:09:19;;;;;;;6.10;1.40;;;;;;;;;;5089807;28;20050;-68
2022/08/26 02:11:46;;;;;;;2.50;1.43;;;;;;;;;;5088776;28;20360;-68
2022/08/26 02:14:15;;;;;;;2.83;1.37;;;;;;;;;;5103410;28;20373;-68
2022/08/26 02:16:44;;;;;;;2.40;1.53;;;;;;;;;;5107947;28;20102;-68
2022/08/26 02:19:18;;;;;;;2.60;1.70;;;;;;;;;;5112900;28;20038;-69
2022/08/26 02:21:47;;;;;;;1.10;1.00;;;;;;;;;;5114354;28;20374;-68
2022/08/26 02:24:19;;;;;;;4.70;2.07;;;;;;;;;;5114180;28;20102;-68
2022/08/26 02:26:46;;;;;;;2.90;1.80;;;;;;;;;;5093712;28;20457;-68
2022/08/26 02:29:29;;;;;;;3.70;1.53;;;;;;;;;;5093672;28;20047;-68
2022/08/26 02:31:55;;;;;;;2.60;1.73;;;;;;;;;;5088802;28;20024;-68
2022/08/26 02:34:23;;;;;;;3.37;2.00;;;;;;;;;;5088649;28;20048;-68
2022/08/26 02:36:50;;;;;;;2.60;1.73;;;;;;;;;;5096040;28;20085;-69
2022/08/26 02:39:17;;;;;;;4.30;2.00;;;;;;;;;;5108805;28;20016;-68
2022/08/26 02:41:44;;;;;;;3.47;2.03;;;;;;;;;;5112922;28;20023;-68
2022/08/26 02:44:11;;;;;;;3.23;2.13;;;;;;;;;;5113807;28;20019;-68
2022/08/26 02:46:37;;;;;;;4.67;2.33;;;;;;;;;;5107130;28;20071;-68
2022/08/26 02:49:04;;;;;;;1.00;0.90;;;;;;;;;;5094398;28;20032;-68
2022/08/26 02:51:31;;;;;;;2.47;1.67;;;;;;;;;;5093178;28;20050;-68
2022/08/26 02:53:57;;;;;;;1.53;1.30;;;;;;;;;;5088900;28;20387;-69
2022/08/26 02:56:24;;;;;;;2.47;1.53;;;;;;;;;;5088110;28;20470;-68
2022/08/26 02:58:51;;;;;;;2.50;1.73;;;;;;;;;;5093087;28;20031;-69
2022/08/26 03:01:21;;;;;;;2.13;1.53;;;;;;;;;;5106682;28;20390;-68
2022/08/26 03:03:47;;;;;;;2.53;1.43;;;;;;;;;;5105680;28;20482;-68
2022/08/26 03:06:14;;;;;;;2.20;1.40;;;;;;;;;;5093018;28;20161;-68
2022/08/26 03:08:41;;;;;;;1.13;0.97;;;;;;;;;;5093052;28;20496;-68
2022/08/26 03:11:07;;;;;;;2.17;1.73;;;;;;;;;;5092779;28;20035;-68
2022/08/26 03:13:35;;;;;;;2.33;1.70;;;;;;;;;;5095850;28;20053;-68
2022/08/26 03:16:02;;;;;;;2.70;1.83;;;;;;;;;;5109709;28;20027;-69
2022/08/26 03:18:29;;;;;;;3.03;1.97;;;;;;;;;;5104584;28;20035;-68
2022/08/26 03:20:55;;;;;;;3.73;1.70;;;;;;;;;;5087467;28;20032;-68
2022/08/26 03:23:22;;;;;;;2.07;1.50;;;;;;;;;;5087844;28;20094;-68
2022/08/26 03:25:52;;;;;;;1.47;1.27;;;;;;;;;;5090433;28;20493;-68
2022/08/26 03:28:19;;;;;;;2.27;1.37;;;;;;;;;;5092793;28;20012;-69
2022/08/26 03:30:47;;;;;;;1.60;1.30;;;;;;;;;;5113056;28;20035;-68
2022/08/26 03:33:14;;;;;;;4.33;1.60;;;;;;;;;;5111345;28;20047;-68
2022/08/26 03:35:42;;;;;;;2.87;1.80;;;;;;;;;;5092418;28;20471;-68
2022/08/26 03:38:08;;;;;;;1.57;1.43;;;;;;;;;;5089412;28;20417;-68
2022/08/26 03:40:36;;;;;;;2.27;1.60;;;;;;;;;;5087513;28;20120;-68
2022/08/26 03:43:03;;;;;;;1.80;1.30;;;;;;;;;;5087521;28;20091;-68
2022/08/26 03:45:30;;;;;;;4.47;1.80;;;;;;;;;;5106441;28;20030;-68
2022/08/26 03:47:57;;;;;;;1.93;1.53;;;;;;;;;;5110114;28;20063;-68
2022/08/26 03:50:26;;;;;;;4.30;2.00;;;;;;;;;;5112550;28;20097;-68
2022/08/26 03:52:54;;;;;;;2.47;1.47;;;;;;;;;;5112374;28;20059;-68
2022/08/26 03:55:22;;;;;;;3.03;1.90;;;;;;;;;;5112374;28;20058;-68
2022/08/26 03:57:48;;;;;;;1.10;1.00;;;;;;;;;;5092394;28;20100;-69
2022/08/26 04:00:15;;;;;;;2.37;1.70;;;;;;;;;;5090936;28;20082;-68
2022/08/26 04:02:44;;;;;;;2.57;1.60;;;;;;;;;;5107723;28;20023;-68
2022/08/26 04:05:12;;;;;;;1.80;1.47;;;;;;;;;;5107633;28;20359;-69
2022/08/26 04:07:41;;;;;;;2.67;1.43;;;;;;;;;;5105628;28;20032;-68
2022/08/26 04:10:08;;;;;;;2.90;1.63;;;;;;;;;;5088976;28;20020;-68
2022/08/26 04:12:36;;;;;;;2.20;1.53;;;;;;;;;;5092160;28;20107;-68
2022/08/26 04:15:04;;;;;;;1.40;1.20;;;;;;;;;;5092249;28;20024;-68
2022/08/26 04:17:31;;;;;;;2.00;1.57;;;;;;;;;;5092323;28;20083;-68
2022/08/26 04:19:58;;;;;;;3.83;1.47;;;;;;;;;;5096024;28;20089;-68
2022/08/26 04:22:24;;;;;;;1.73;1.13;;;;;;;;;;5110382;28;20480;-68
2022/08/26 04:24:51;;;;;;;2.10;1.50;;;;;;;;;;5107336;28;20385;-68
2022/08/26 04:27:18;;;;;;;2.93;1.10;;;;;;;;;;5107193;28;20050;-68
2022/08/26 04:29:45;;;;;;;2.13;1.70;;;;;;;;;;5107652;28;20509;-68
2022/08/26 04:32:12;;;;;;;1.43;1.17;;;;;;;;;;5106467;28;20031;-68
2022/08/26 04:34:39;;;;;;;1.53;1.10;;;;;;;;;;5112570;28;20019;-68
2022/08/26 04:37:05;;;;;;;1.87;1.37;;;;;;;;;;5112396;28;20034;-68
2022/08/26 04:39:33;;;;;;;2.50;1.30;;;;;;;;;;5113874;28;20019;-68
2022/08/26 04:41:59;;;;;;;2.50;1.37;;;;;;;;;;5095884;28;20031;-67
2022/08/26 04:44:27;;;;;;;1.53;1.30;;;;;;;;;;5093728;28;20031;-68
2022/08/26 04:46:55;;;;;;;2.60;1.30;;;;;;;;;;5090399;28;20118;-68
2022/08/26 04:49:21;;;;;;;0.97;0.90;;;;;;;;;;5090717;28;20028;-68
2022/08/26 04:51:48;;;;;;;1.50;1.10;;;;;;;;;;5108156;28;20056;-68
2022/08/26 04:54:15;;;;;;;2.33;1.50;;;;;;;;;;5110936;28;20016;-68
2022/08/26 04:56:43;;;;;;;1.37;0.87;;;;;;;;;;5095378;28;20028;-68
2022/08/26 04:59:14;;;;;;;4.83;1.73;;;;;;;;;;5095441;28;20032;-68
2022/08/26 05:01:45;;;;;;;3.13;1.60;;;;;;;;;;5095225;28;20028;-68
2022/08/26 05:04:11;;;;;;;2.93;2.33;;;;;;;;;;5115666;28;20031;-68
2022/08/26 05:06:38;;;;;;;2.83;1.43;;;;;;;;;;5114368;28;20513;-68
2022/08/26 05:09:05;;;;;;;1.87;1.17;;;;;;;;;;5110584;28;20047;-68
2022/08/26 05:11:32;;;;;;;2.17;1.70;;;;;;;;;;5110663;28;20024;-68
2022/08/26 05:14:00;;;;;;;2.57;1.00;;;;;;;;;;5109743;28;20047;-68
2022/08/26 05:16:27;;;;;;;1.73;1.53;;;;;;;;;;5090249;28;20016;-67
2022/08/26 05:18:54;;;;;;;1.90;1.30;;;;;;;;;;5094748;28;20028;-68
2022/08/26 05:21:22;;;;;;;0.80;0.80;;;;;;;;;;5095137;28;20028;-67
2022/08/26 05:23:50;;;;;;;2.53;1.40;;;;;;;;;;5094896;28;20091;-67
2022/08/26 05:26:17;;;;;;;3.00;2.03;;;;;;;;;;5110761;28;20032;-69
2022/08/26 05:28:44;;;;;;;3.20;1.67;;;;;;;;;;5114314;28;20016;-67
2022/08/26 05:31:17;;;;;;;2.43;1.70;;;;;;;;;;5110106;28;20024;-68
2022/08/26 05:33:44;;;;;;;2.20;1.60;;;;;;;;;;5110067;28;20467;-67
2022/08/26 05:36:12;;;;;;;1.70;1.17;;;;;;;;;;5109673;28;20391;-68
2022/08/26 05:38:39;;;;;;;5.87;2.17;;;;;;;;;;5069474;28;20032;-68
2022/08/26 05:41:13;;;;;;;5.60;1.73;;;;;;;;;;5074408;28;20025;-68
2022/08/26 05:43:40;;;;;;;1.80;1.23;;;;;;;;;;5074459;28;20020;-67
2022/08/26 05:46:07;;;;;;;3.30;1.97;;;;;;;;;;5074224;28;20078;-68
2022/08/26 05:48:33;;;;;;;6.27;1.80;;;;;;;;;;5084297;28;20438;-67
2022/08/26 05:51:02;;;;;;;5.17;1.87;;;;;;;;;;5114004;28;20020;-68
2022/08/26 05:53:29;;;;;;;2.10;1.57;;;;;;;;;;5109624;28;20521;-67
2022/08/26 05:55:56;;;;;;;2.10;1.53;;;;;;;;;;5109541;28;20043;-68
2022/08/26 05:58:23;;;;;;;10.37;2.47;;;;;;;;;;5109675;28;20030;-67
2022/08/26 06:01:05;;;;;;;5.40;1.50;;;;;;;;;;5102978;28;20020;-67
2022/08/26 06:03:32;;;;;;;2.20;1.40;;;;;;;;;;5094108;28;20031;-67
2022/08/26 06:06:02;;;;;;;2.23;1.53;;;;;;;;;;5094072;28;20024;-68
2022/08/26 06:08:29;;;;;;;2.80;1.67;;;;;;;;;;5094160;28;20502;-67
2022/08/26 06:10:59;;;;;;;2.70;1.57;;;;;;;;;;5094206;28;20027;-67
2022/08/26 06:13:28;;;;;;;3.27;1.50;;;;;;;;;;5101995;28;20023;-67
2022/08/26 06:15:55;;;;;;;2.37;1.93;;;;;;;;;;5109157;28;20023;-68
2022/08/26 06:18:23;;;;;;;1.83;1.27;;;;;;;;;;5109150;28;20019;-68
2022/08/26 06:20:50;;;;;;;3.63;1.20;;;;;;;;;;5109288;28;20032;-67
2022/08/26 06:26:04;;;;;;;1.37;1.10;;;;;;;;;;5098205;28;20505;-67
2022/08/26 06:28:31;;;;;;;1.60;1.37;;;;;;;;;;5093239;28;20016;-66
2022/08/26 06:30:58;;;;;;;1.40;1.13;;;;;;;;;;5093775;28;20031;-67
2022/08/26 06:33:27;;;;;;;2.20;1.50;;;;;;;;;;5093589;28;20031;-67
2022/08/26 06:35:54;;;;;;;2.97;1.50;;;;;;;;;;5092464;28;20020;-67
2022/08/26 06:38:21;;;;;;;1.63;1.20;;;;;;;;;;5105930;28;20027;-67
2022/08/26 06:40:49;;;;;;;1.77;1.40;;;;;;;;;;5108689;28;20470;-67
2022/08/26 06:43:17;;;;;;;3.73;2.00;;;;;;;;;;5108765;28;20382;-68
2022/08/26 06:45:44;;;;;;;2.10;1.60;;;;;;;;;;5108772;28;20034;-67
2022/08/26 06:48:12;;;;;;;2.40;1.50;;;;;;;;;;5111615;28;20518;-67
2022/08/26 06:50:39;;;;;;;5.77;1.97;;;;;;;;;;5093282;28;20016;-67
2022/08/26 06:53:06;;;;;;;1.63;1.23;;;;;;;;;;5093263;28;20038;-68
2022/08/26 06:55:35;;;;;;;1.77;1.40;;;;;;;;;;5093293;28;20026;-67
2022/08/26 06:58:02;;;;;;;2.10;1.37;;;;;;;;;;5092271;28;20020;-67
2022/08/26 07:00:31;;;;;;;3.40;1.80;;;;;;;;;;5092004;28;20027;-67
2022/08/26 07:02:57;;;;;;;2.43;1.73;;;;;;;;;;5107835;28;20020;-67
2022/08/26 07:05:25;;;;;;;4.17;1.70;;;;;;;;;;5108438;28;20035;-67
2022/08/26 07:07:52;;;;;;;2.13;1.40;;;;;;;;;;5108395;28;20084;-67
2022/08/26 07:10:19;;;;;;;2.20;1.37;;;;;;;;;;5113463;28;20016;-67
2022/08/26 07:12:45;;;;;;;3.80;1.10;;;;;;;;;;5105867;28;20070;-67
2022/08/26 07:15:12;;;;;;;1.20;1.00;;;;;;;;;;5092820;28;20467;-67
2022/08/26 07:17:39;;;;;;;0.83;0.80;;;;;;;;;;5092800;28;20012;-67
2022/08/26 07:20:07;;;;;;;0.60;0.60;;;;;;;;;;5092508;28;20024;-67
2022/08/26 07:22:34;;;;;;;1.50;1.17;;;;;;;;;;5087824;28;20423;-67
2022/08/26 07:25:00;;;;;;;1.20;1.10;;;;;;;;;;5094615;28;20034;-67
2022/08/26 07:27:27;;;;;;;0.93;0.83;;;;;;;;;;5107927;28;20110;-67
2022/08/26 07:29:56;;;;;;;2.83;1.70;;;;;;;;;;5108091;28;20466;-67
2022/08/26 07:32:23;;;;;;;2.97;2.27;;;;;;;;;;5112787;28;20028;-67
2022/08/26 07:34:49;;;;;;;2.33;1.33;;;;;;;;;;5112575;28;20020;-66
2022/08/26 07:37:16;;;;;;;1.40;1.10;;;;;;;;;;5104565;28;20081;-67
2022/08/26 07:39:43;;;;;;;0.97;0.80;;;;;;;;;;5092603;28;20520;-67
2022/08/26 07:42:12;;;;;;;1.43;1.10;;;;;;;;;;5092614;28;20024;-67
2022/08/26 07:44:39;;;;;;;1.80;1.23;;;;;;;;;;5087455;28;20112;-67
2022/08/26 07:47:07;;;;;;;2.93;1.67;;;;;;;;;;5087450;28;20036;-67
2022/08/26 07:49:34;;;;;;;3.40;2.20;;;;;;;;;;5098858;28;20085;-67
2022/08/26 07:52:01;;;;;;;1.43;1.00;;;;;;;;;;5107211;28;20043;-68
2022/08/26 07:54:28;;;;;;;2.50;1.97;;;;;;;;;;5110161;28;20028;-67
2022/08/26 07:56:55;;;;;;;2.77;2.10;;;;;;;;;;5112776;28;20098;-67
2022/08/26 07:59:22;;;;;;;2.27;1.33;;;;;;;;;;5112787;28;20457;-67
2022/08/26 08:01:48;;;;;;;2.90;2.13;;;;;;;;;;5099216;28;20042;-67
2022/08/26 08:04:16;;;;;;;1.87;1.57;;;;;;;;;;5093484;28;20031;-68
2022/08/26 08:06:43;;;;;;;2.57;2.00;;;;;;;;;;5087441;28;20078;-67
2022/08/26 08:09:11;;;;;;;1.23;1.10;;;;;;;;;;5087026;28;20059;-67
2022/08/26 08:11:37;;;;;;;2.40;1.53;;;;;;;;;;5087192;28;20084;-67
2022/08/26 08:14:04;;;;;;;2.80;2.10;;;;;;;;;;5102390;28;20031;-67
2022/08/26 08:16:31;;;;;;;7.47;1.97;;;;;;;;;;5115658;28;20016;-67
2022/08/26 08:18:57;;;;;;;2.00;1.60;;;;;;;;;;5116650;28;20514;-67
2022/08/26 08:21:25;;;;;;;6.77;2.23;;;;;;;;;;5116563;28;20020;-67
2022/08/26 08:23:52;;;;;;;2.23;1.63;;;;;;;;;;5116638;28;20031;-67
2022/08/26 08:26:19;;;;;;;1.57;1.30;;;;;;;;;;5102119;28;20157;-67
2022/08/26 08:28:46;;;;;;;3.17;2.30;;;;;;;;;;5091735;28;20506;-67
2022/08/26 08:31:20;;;;;;;1.50;1.23;;;;;;;;;;5090877;28;20028;-67
2022/08/26 08:33:47;;;;;;;1.53;1.20;;;;;;;;;;5090953;28;20031;-67
2022/08/26 08:36:15;;;;;;;2.17;1.57;;;;;;;;;;5090846;28;20024;-67
2022/08/26 08:38:43;;;;;;;2.20;1.57;;;;;;;;;;5108419;28;20024;-67
2022/08/26 08:41:26;;;;;;;1.97;1.53;;;;;;;;;;5116174;28;20023;-67
2022/08/26 08:43:53;;;;;;;1.33;1.17;;;;;;;;;;5116568;28;20340;-67
2022/08/26 08:46:20;;;;;;;1.70;1.50;;;;;;;;;;5115992;28;20031;-67
2022/08/26 08:48:49;;;;;;;1.23;1.03;;;;;;;;;;5116054;28;20020;-67
2022/08/26 08:51:39;;;;;;;1.70;1.33;;;;;;;;;;5093950;28;20445;-67
2022/08/26 08:54:06;;;;;;;2.57;1.70;;;;;;;;;;5077825;28;20040;-68
2022/08/26 08:56:39;;;;;;;3.77;2.43;;;;;;;;;;5090567;28;20122;-67
2022/08/26 08:59:19;;;;;;;2.37;1.77;;;;;;;;;;5090429;28;20428;-67
2022/08/26 09:01:51;;;;;;;1.17;1.03;;;;;;;;;;5099944;28;20041;-67
2022/08/26 09:04:36;;;;;;;1.80;1.10;;;;;;;;;;5115536;28;20478;-68
2022/08/26 09:07:04;;;;;;;1.60;1.35;;;;;;;;;;5115722;28;20084;-67
2022/08/26 09:10:09;;;;;;;1.50;1.37;;;;;;;;;;5115652;28;20436;-67
2022/08/26 09:12:36;;;;;;;1.70;1.07;;;;;;;;;;5011151;28;20504;-67
2022/08/26 09:15:11;;;;;;;3.53;1.23;;;;;;;;;;4992436;28;20027;-67
2022/08/26 09:17:43;;;;;;;1.80;1.33;;;;;;;;;;5031841;28;20041;-68
2022/08/26 09:20:13;;;;;;;5.77;1.77;;;;;;;;;;5069870;28;20032;-67
2022/08/26 09:22:41;;;;;;;2.63;1.40;;;;;;;;;;5072092;28;20472;-67
2022/08/26 09:25:11;;;;;;;1.67;1.33;;;;;;;;;;5074217;28;20438;-67
2022/08/26 09:27:39;;;;;;;4.63;1.40;;;;;;;;;;5074872;28;20040;-66
2022/08/26 09:30:06;;;;;;;11.07;1.60;;;;;;;;;;5074526;28;20025;-68
2022/08/26 09:32:34;;;;;;;0.60;0.50;;;;;;;;;;5074580;28;20463;-66
2022/08/26 09:35:02;;;;;;;1.10;0.90;;;;;;;;;;5071909;28;20422;-67
2022/08/26 09:37:41;;;;;;;1.47;1.13;;;;;;;;;;5079850;28;20023;-67
2022/08/26 09:40:13;;;;;;;3.20;2.17;;;;;;;;;;5110098;28;20032;-67
2022/08/26 09:42:40;;;;;;;1.30;1.10;;;;;;;;;;5109874;28;20065;-67
2022/08/26 09:45:11;;;;;;;1.07;0.97;;;;;;;;;;5112547;28;20098;-66
2022/08/26 09:47:52;;;;;;;4.87;1.40;;;;;;;;;;5114549;28;20067;-67
2022/08/26 09:50:34;;;;;;;1.20;0.90;;;;;;;;;;5101485;28;20031;-67
2022/08/26 09:53:04;;;;;;;1.97;0.87;;;;;;;;;;5093813;28;20359;-66
2022/08/26 09:55:31;;;;;;;1.73;1.30;;;;;;;;;;5094385;28;20021;-66
2022/08/26 09:57:57;;;;;;;0.30;0.30;;;;;;;;;;5090162;28;20031;-67
2022/08/26 10:00:27;;;;;;;1.17;0.90;;;;;;;;;;5089202;28;20017;-67
2022/08/26 10:02:54;;;;;;;0.50;0.50;;;;;;;;;;5102934;28;20035;-67
2022/08/26 10:05:41;;;;;;;1.50;0.93;;;;;;;;;;5109091;28;20052;-67
2022/08/26 10:08:26;;;;;;;11.27;1.90;;;;;;;;;;5113226;28;20454;-66
2022/08/26 10:10:55;;;;;;;2.85;1.23;;;;;;;;;;5114621;28;20019;-66
2022/08/26 10:13:24;;;;;;;1.50;1.13;;;;;;;;;;5097413;28;20036;-67
2022/08/26 10:15:55;;;;;;;1.47;1.07;;;;;;;;;;5093551;28;20066;-66
2022/08/26 10:18:25;;;;;;;0.93;0.87;;;;;;;;;;5093944;28;20028;-67
2022/08/26 10:20:56;;;;;;;2.67;1.77;;;;;;;;;;5088779;28;20028;-67
2022/08/26 10:23:29;;;;;;;0.53;0.53;;;;;;;;;;5105810;28;20032;-67
2022/08/26 10:25:57;;;;;;;5.63;1.60;;;;;;;;;;5109179;28;20031;-66
2022/08/26 10:28:31;;;;;;;1.07;0.73;;;;;;;;;;5108350;28;20020;-67
2022/08/26 10:31:03;;;;;;;4.33;1.40;;;;;;;;;;5114069;28;20020;-67
2022/08/26 10:33:30;;;;;;;1.57;1.27;;;;;;;;;;5098539;28;20028;-67
2022/08/26 10:35:58;;;;;;;1.23;1.00;;;;;;;;;;5113894;28;20028;-67
2022/08/26 10:38:37;;;;;;;1.00;0.73;;;;;;;;;;5095539;28;20035;-66
2022/08/26 10:41:22;;;;;;;0.50;0.50;;;;;;;;;;5092532;28;20028;-67
2022/08/26 10:43:52;;;;;;;1.43;1.20;;;;;;;;;;5088367;28;20016;-67
2022/08/26 10:46:21;;;;;;;1.17;0.63;;;;;;;;;;5088132;28;20043;-67
2022/08/26 10:48:52;;;;;;;1.00;0.80;;;;;;;;;;5107685;28;20378;-67
2022/08/26 10:51:22;;;;;;;1.30;0.80;;;;;;;;;;5109931;28;20057;-67
2022/08/26 10:54:01;;;;;;;1.17;0.80;;;;;;;;;;5113605;28;20036;-66
2022/08/26 10:56:28;;;;;;;1.73;1.13;;;;;;;;;;5113587;28;20027;-66
2022/08/26 10:59:05;;;;;;;2.03;1.10;;;;;;;;;;5111766;28;20031;-67
2022/08/26 11:01:44;;;;;;;0.67;0.57;;;;;;;;;;5113341;28;20048;-66
2022/08/26 11:04:21;;;;;;;1.30;1.00;;;;;;;;;;5110335;28;20413;-67
2022/08/26 11:06:48;;;;;;;1.03;0.90;;;;;;;;;;5108253;28;20031;-66
2022/08/26 11:09:37;;;;;;;1.20;0.97;;;;;;;;;;5108291;28;20026;-66
2022/08/26 11:12:04;;;;;;;2.00;0.83;;;;;;;;;;5091372;28;20478;-66
2022/08/26 11:14:32;;;;;;;0.80;0.70;;;;;;;;;;5091221;28;20402;-66
2022/08/26 11:17:00;;;;;;;1.17;0.87;;;;;;;;;;5092918;28;20027;-66
2022/08/26 11:19:30;;;;;;;0.77;0.67;;;;;;;;;;5092866;28;20366;-66
2022/08/26 11:22:05;;;;;;;1.77;1.27;;;;;;;;;;5092178;28;20044;-66
2022/08/26 11:24:31;;;;;;;;;;;;;;;;;;5093385;28;20043;-66
2022/08/26 11:26:58;;;;;;;2.33;1.70;;;;;;;;;;5101389;28;19919;-66
2022/08/26 11:29:43;;;;;;;0.97;0.83;;;;;;;;;;5108153;28;20106;-66
2022/08/26 11:32:23;;;;;;;1.13;0.73;;;;;;;;;;5107776;28;20051;-66
2022/08/26 11:34:52;;;;;;;0.53;0.40;;;;;;;;;;5107971;28;21776;-67
2022/08/26 11:37:20;;;;;;;0.77;0.67;;;;;;;;;;5110289;28;20055;-66
2022/08/26 11:39:48;;;;;;;1.07;0.87;;;;;;;;;;5112991;28;20108;-66
2022/08/26 11:42:35;;;;;;;0.83;0.73;;;;;;;;;;5112982;28;20026;-66
2022/08/26 11:45:12;;;;;;;0.43;0.43;;;;;;;;;;5112917;28;20027;-66
2022/08/26 11:47:38;;;;;;;0.80;0.70;;;;;;;;;;5111891;28;20032;-66
2022/08/26 11:50:07;;;;;;;0.83;0.67;;;;;;;;;;5088385;28;20050;-66
2022/08/26 11:52:34;;;;;;;1.63;1.43;;;;;;;;;;5087396;28;20032;-66
2022/08/26 11:55:01;;;;;;;1.73;0.90;;;;;;;;;;5087045;28;20474;-66
2022/08/26 11:57:28;;;;;;;2.53;1.27;;;;;;;;;;5087497;28;20032;-66
2022/08/26 11:59:55;;;;;;;1.20;0.80;;;;;;;;;;5092358;28;20024;-66
2022/08/26 12:02:22;;;;;;;2.07;0.80;;;;;;;;;;5111304;28;20493;-66
2022/08/26 12:04:50;;;;;;;0.90;0.80;;;;;;;;;;5112773;28;20034;-67
2022/08/26 12:07:21;;;;;;;1.60;1.13;;;;;;;;;;5112583;28;20554;-66
2022/08/26 12:09:54;;;;;;;1.20;0.70;;;;;;;;;;5112043;28;20020;-66
2022/08/26 12:12:36;;;;;;;2.37;1.57;;;;;;;;;;5103055;28;20351;-66
2022/08/26 12:15:21;;;;;;;4.00;0.70;;;;;;;;;;5087305;28;20027;-66
2022/08/26 12:17:49;;;;;;;2.00;0.82;;;;;;;;;;5086947;28;20107;-66
2022/08/26 12:20:19;;;;;;;3.37;1.10;;;;;;;;;;5088261;28;20043;-66
2022/08/26 12:22:46;;;;;;;0.40;0.40;;;;;;;;;;5092199;28;20099;-66
2022/08/26 12:25:13;;;;;;;1.20;0.60;;;;;;;;;;5104626;28;20104;-66
2022/08/26 12:27:44;;;;;;;0.67;0.63;;;;;;;;;;5112383;28;20027;-66
2022/08/26 12:30:16;;;;;;;1.90;1.20;;;;;;;;;;5111968;28;20078;-66
2022/08/26 12:32:47;;;;;;;0.97;0.73;;;;;;;;;;5110284;28;20059;-66
2022/08/26 12:35:15;;;;;;;1.90;1.00;;;;;;;;;;5107327;28;20023;-66
2022/08/26 12:37:43;;;;;;;1.13;1.00;;;;;;;;;;5089773;28;20024;-66
2022/08/26 12:40:28;;;;;;;1.20;0.90;;;;;;;;;;5087056;28;20107;-66
2022/08/26 12:42:57;;;;;;;0.40;0.40;;;;;;;;;;5088526;28;20031;-66
2022/08/26 12:45:29;;;;;;;1.40;0.87;;;;;;;;;;5091944;28;20078;-66
2022/08/26 12:47:58;;;;;;;0.50;0.50;;;;;;;;;;5091754;28;20040;-66
2022/08/26 12:50:27;;;;;;;1.20;1.00;;;;;;;;;;5071783;28;20020;-66
2022/08/26 12:52:59;;;;;;;1.07;0.80;;;;;;;;;;5071656;28;20039;-66
2022/08/26 12:55:31;;;;;;;1.67;0.90;;;;;;;;;;5068737;28;20443;-66
2022/08/26 12:58:16;;;;;;;0.70;0.60;;;;;;;;;;5066703;28;20111;-66
2022/08/26 13:00:47;;;;;;;1.77;1.05;;;;;;;;;;5076805;28;20020;-67
2022/08/26 13:03:32;;;;;;;3.10;1.17;;;;;;;;;;5110706;28;20046;-66
2022/08/26 13:06:31;;;;;;;2.05;1.38;;;;;;;;;;5114185;28;20043;-66
2022/08/26 13:09:04;;;;;;;2.57;1.60;;;;;;;;;;5060440;28;20423;-66
2022/08/26 13:11:54;;;;;;;2.43;1.80;;;;;;;;;;5115143;28;20016;-66
2022/08/26 13:14:21;;;;;;;1.73;1.33;;;;;;;;;;5097923;28;20414;-66
2022/08/26 13:16:48;;;;;;;2.03;1.20;;;;;;;;;;5094194;28;20020;-66
2022/08/26 13:19:17;;;;;;;1.70;1.40;;;;;;;;;;5090202;28;20040;-66
2022/08/26 13:21:48;;;;;;;1.33;1.10;;;;;;;;;;5089679;28;20028;-66
2022/08/26 13:24:36;;;;;;;3.10;1.17;;;;;;;;;;5090471;28;20419;-67
2022/08/26 13:27:04;;;;;;;5.40;1.80;;;;;;;;;;5111277;28;20111;-67
2022/08/26 13:29:30;;;;;;;2.07;1.60;;;;;;;;;;5115396;28;20027;-66
2022/08/26 13:31:57;;;;;;;1.90;1.33;;;;;;;;;;5114948;28;20031;-66
2022/08/26 13:34:24;;;;;;;2.00;1.03;;;;;;;;;;5115335;28;20031;-67
2022/08/26 13:36:53;;;;;;;2.57;1.43;;;;;;;;;;5106556;28;20018;-66
2022/08/26 13:39:20;;;;;;;2.03;1.67;;;;;;;;;;5093280;28;20026;-67
2022/08/26 13:41:47;;;;;;;2.17;1.53;;;;;;;;;;5089664;28;20021;-67
2022/08/26 13:44:13;;;;;;;1.80;1.13;;;;;;;;;;5089685;28;20035;-67
2022/08/26 13:46:40;;;;;;;1.53;1.23;;;;;;;;;;5089478;28;20107;-67
2022/08/26 13:49:07;;;;;;;2.30;1.50;;;;;;;;;;5098858;28;20042;-67
2022/08/26 13:51:34;;;;;;;3.13;1.60;;;;;;;;;;5114977;28;20474;-66
2022/08/26 13:54:01;;;;;;;2.30;1.67;;;;;;;;;;5114683;28;20073;-67
2022/08/26 13:56:28;;;;;;;7.60;1.53;;;;;;;;;;5114761;28;20046;-66
2022/08/26 13:58:56;;;;;;;3.03;1.83;;;;;;;;;;5114753;28;20020;-67
2022/08/26 14:01:22;;;;;;;1.83;1.27;;;;;;;;;;5103336;28;20032;-68
2022/08/26 14:03:49;;;;;;;1.40;1.00;;;;;;;;;;5089115;28;20017;-67
2022/08/26 14:06:16;;;;;;;1.30;1.10;;;;;;;;;;5089065;28;20536;-67
2022/08/26 14:08:43;;;;;;;2.73;1.30;;;;;;;;;;5089047;28;20024;-68
2022/08/26 14:11:09;;;;;;;1.40;1.20;;;;;;;;;;5089068;28;20098;-68
2022/08/26 14:13:37;;;;;;;1.57;1.00;;;;;;;;;;5104987;28;20027;-68
2022/08/26 14:16:07;;;;;;;1.40;1.00;;;;;;;;;;5114677;28;20424;-67
2022/08/26 14:18:35;;;;;;;3.40;1.00;;;;;;;;;;5114435;28;20019;-67
2022/08/26 14:21:05;;;;;;;2.27;1.10;;;;;;;;;;5110330;28;20020;-67
2022/08/26 14:23:31;;;;;;;1.60;1.27;;;;;;;;;;5093142;28;20024;-68
2022/08/26 14:25:58;;;;;;;1.63;1.00;;;;;;;;;;5088675;28;20028;-68
2022/08/26 14:28:25;;;;;;;4.80;1.00;;;;;;;;;;5088510;28;20390;-68
2022/08/26 14:30:53;;;;;;;1.47;1.10;;;;;;;;;;5089722;28;20048;-68
2022/08/26 14:33:23;;;;;;;5.00;1.93;;;;;;;;;;5109160;28;20106;-68
2022/08/26 14:35:50;;;;;;;2.30;1.33;;;;;;;;;;5113755;28;20026;-68
2022/08/26 14:38:17;;;;;;;1.63;1.27;;;;;;;;;;5114214;28;20012;-67
2022/08/26 14:40:43;;;;;;;1.57;1.17;;;;;;;;;;5114138;28;20028;-68
2022/08/26 14:43:13;;;;;;;1.67;1.20;;;;;;;;;;5108243;28;20027;-68
2022/08/26 14:45:42;;;;;;;1.33;1.00;;;;;;;;;;5092779;28;20019;-68
2022/08/26 14:48:08;;;;;;;2.37;1.30;;;;;;;;;;5088334;28;20047;-68
2022/08/26 14:50:35;;;;;;;1.47;1.03;;;;;;;;;;5088413;28;20031;-68
2022/08/26 14:55:47;;;;;;;4.63;1.60;;;;;;;;;;5098857;28;20038;-68
2022/08/26 14:58:13;;;;;;;1.90;1.40;;;;;;;;;;5113492;28;20023;-68
2022/08/26 15:00:40;;;;;;;1.23;0.93;;;;;;;;;;5108458;28;20024;-68